createdAt,value
2019-01-21T00:00:55.836Z,15.77
2019-01-21T00:03:25.330Z,16.23
2019-01-21T00:05:54.734Z,17.73
2019-01-21T00:08:24.158Z,16.90
2019-01-21T00:10:53.607Z,16.13
2019-01-21T00:13:22.657Z,16.43
2019-01-21T00:15:51.754Z,17.43
2019-01-21T00:18:21.308Z,16.60
2019-01-21T00:20:50.530Z,15.80
2019-01-21T00:23:19.595Z,21.13
2019-01-21T00:25:49.327Z,17.03
2019-01-21T00:28:19.197Z,16.07
2019-01-21T00:30:49.087Z,16.93
2019-01-21T00:33:18.099Z,16.67
2019-01-21T00:35:47.281Z,16.33
2019-01-21T00:38:16.264Z,15.70
2019-01-21T00:40:45.351Z,16.33
2019-01-21T00:43:14.399Z,16.10
2019-01-21T00:45:43.444Z,16.57
2019-01-21T00:48:12.478Z,17.17
2019-01-21T00:50:41.523Z,16.57
2019-01-21T00:53:10.550Z,16.77
2019-01-21T00:55:39.579Z,16.33
2019-01-21T00:58:08.617Z,16.40
2019-01-21T01:00:37.834Z,16.27
2019-01-21T01:03:06.991Z,16.57
2019-01-21T01:05:36.063Z,16.90
2019-01-21T01:08:05.673Z,16.53
2019-01-21T01:10:34.793Z,17.87
2019-01-21T01:13:03.815Z,17.40
2019-01-21T01:15:33.396Z,16.17
2019-01-21T01:18:02.507Z,17.27
2019-01-21T01:20:31.573Z,17.23
2019-01-21T01:23:00.683Z,17.10
2019-01-21T01:25:29.643Z,17.67
2019-01-21T01:27:58.715Z,17.87
2019-01-21T01:30:28.107Z,17.90
2019-01-21T01:32:57.849Z,18.40
2019-01-21T01:35:26.922Z,18.40
2019-01-21T01:37:55.951Z,17.97
2019-01-21T01:40:24.997Z,18.13
2019-01-21T01:42:54.106Z,19.77
2019-01-21T01:45:30.887Z,19.40
2019-01-21T01:48:01.874Z,17.50
2019-01-21T01:50:31.007Z,18.40
2019-01-21T01:53:00.543Z,18.43
2019-01-21T01:55:33.271Z,19.70
2019-01-21T01:58:04.151Z,18.73
2019-01-21T02:00:33.301Z,18.87
2019-01-21T02:03:02.391Z,18.70
2019-01-21T02:05:31.557Z,18.80
2019-01-21T02:08:00.607Z,18.73
2019-01-21T02:10:30.019Z,17.87
2019-01-21T02:12:59.353Z,19.53
2019-01-21T02:15:28.361Z,18.73
2019-01-21T02:17:57.423Z,19.57
2019-01-21T02:20:26.462Z,17.97
2019-01-21T02:22:58.999Z,19.17
2019-01-21T02:25:51.520Z,18.20
2019-01-21T02:28:50.815Z,18.73
2019-01-21T02:31:56.385Z,17.17
2019-01-21T02:34:52.575Z,18.10
2019-01-21T02:37:56.643Z,17.50
2019-01-21T02:40:46.983Z,17.73
2019-01-21T02:44:14.489Z,17.20
2019-01-21T02:47:18.399Z,18.33
2019-01-21T02:50:12.449Z,17.80
2019-01-21T02:52:51.067Z,18.20
2019-01-21T02:55:50.043Z,17.07
2019-01-21T02:59:18.141Z,17.17
2019-01-21T03:02:18.469Z,17.97
2019-01-21T03:05:50.048Z,18.33
2019-01-21T03:08:41.038Z,18.30
2019-01-21T03:11:40.755Z,18.10
2019-01-21T03:14:49.033Z,17.43
2019-01-21T03:17:44.091Z,18.60
2019-01-21T03:20:43.332Z,16.83
2019-01-21T03:24:08.102Z,18.20
2019-01-21T03:27:06.455Z,17.70
2019-01-21T03:30:14.366Z,19.00
2019-01-21T03:33:28.115Z,19.03
2019-01-21T03:36:16.611Z,19.50
2019-01-21T03:39:11.304Z,18.40
2019-01-21T03:42:07.745Z,18.73
2019-01-21T03:45:16.868Z,18.07
2019-01-21T03:48:05.838Z,18.73
2019-01-21T03:51:08.671Z,18.10
2019-01-21T03:54:04.680Z,18.57
2019-01-21T03:56:50.921Z,18.40
2019-01-21T03:59:42.458Z,17.93
2019-01-21T04:02:52.121Z,18.57
2019-01-21T04:05:32.665Z,18.73
2019-01-21T04:08:33.695Z,18.33
2019-01-21T04:11:35.479Z,18.40
2019-01-21T04:14:49.667Z,17.93
2019-01-21T04:18:15.257Z,18.37
2019-01-21T04:21:30.637Z,17.93
2019-01-21T04:24:37.384Z,16.90
2019-01-21T04:27:19.687Z,18.30
2019-01-21T04:30:09.598Z,18.03
2019-01-21T04:33:28.911Z,18.73
2019-01-21T04:36:35.550Z,17.83
2019-01-21T04:39:19.933Z,17.97
2019-01-21T04:42:28.581Z,18.33
2019-01-21T04:45:28.765Z,18.57
2019-01-21T04:48:06.771Z,17.70
2019-01-21T04:51:18.881Z,17.67
2019-01-21T04:54:28.519Z,17.03
2019-01-21T04:57:38.717Z,16.83
2019-01-21T05:00:18.841Z,16.70
2019-01-21T05:03:44.226Z,17.00
2019-01-21T05:06:38.296Z,18.90
2019-01-21T05:10:00.225Z,17.80
2019-01-21T05:12:41.357Z,18.03
2019-01-21T05:15:38.021Z,18.87
2019-01-21T05:19:00.533Z,18.53
2019-01-21T05:22:02.623Z,18.20
2019-01-21T05:25:28.417Z,19.30
2019-01-21T05:29:00.321Z,20.70
2019-01-21T05:31:57.034Z,19.27
2019-01-21T05:34:52.540Z,20.00
2019-01-21T05:37:39.158Z,21.17
2019-01-21T05:40:35.171Z,20.17
2019-01-21T05:43:50.175Z,19.57
2019-01-21T05:46:59.009Z,20.80
2019-01-21T05:50:11.795Z,20.83
2019-01-21T05:53:01.639Z,19.93
2019-01-21T05:55:51.461Z,19.63
2019-01-21T05:58:49.126Z,19.33
2019-01-21T06:01:48.554Z,19.27
2019-01-21T06:04:48.801Z,17.97
2019-01-21T06:08:08.454Z,18.47
2019-01-21T06:11:18.879Z,18.57
2019-01-21T06:14:40.108Z,19.47
2019-01-21T06:17:34.408Z,19.87
2019-01-21T06:20:28.481Z,18.63
2019-01-21T06:23:40.576Z,18.90
2019-01-21T06:26:57.153Z,18.97
2019-01-21T06:30:08.606Z,18.97
2019-01-21T06:33:30.780Z,18.77
2019-01-21T06:36:44.012Z,18.60
2019-01-21T06:39:36.728Z,21.23
2019-01-21T06:42:44.217Z,20.83
2019-01-21T06:45:57.705Z,20.33
2019-01-21T06:48:51.585Z,19.20
2019-01-21T06:52:02.790Z,19.23
2019-01-21T06:54:49.025Z,19.53
2019-01-21T06:57:47.940Z,18.73
2019-01-21T07:00:55.255Z,18.03
2019-01-21T07:03:55.780Z,18.83
2019-01-21T07:07:21.331Z,18.57
2019-01-21T07:10:28.801Z,18.67
2019-01-21T07:13:41.968Z,19.27
2019-01-21T07:16:48.867Z,18.50
2019-01-21T07:19:40.761Z,18.90
2019-01-21T07:22:31.066Z,19.40
2019-01-21T07:25:36.309Z,20.63
2019-01-21T07:28:14.240Z,20.73
2019-01-21T07:31:23.374Z,20.67
2019-01-21T07:34:18.482Z,20.57
2019-01-21T07:37:17.137Z,19.47
2019-01-21T07:40:19.311Z,19.77
2019-01-21T07:43:47.728Z,20.67
2019-01-21T07:46:58.009Z,20.40
2019-01-21T07:49:55.546Z,21.00
2019-01-21T07:53:03.478Z,21.07
2019-01-21T07:56:32.067Z,22.40
2019-01-21T07:59:51.192Z,21.83
2019-01-21T08:03:09.521Z,22.03
2019-01-21T08:06:11.509Z,22.67
2019-01-21T08:09:05.247Z,22.17
2019-01-21T08:11:57.033Z,22.33
2019-01-21T08:14:46.186Z,23.17
2019-01-21T08:17:56.053Z,20.63
2019-01-21T08:21:02.054Z,21.37
2019-01-21T08:24:14.415Z,22.57
2019-01-21T08:27:07.487Z,21.97
2019-01-21T08:29:51.649Z,21.77
2019-01-21T08:32:47.844Z,22.70
2019-01-21T08:36:03.941Z,22.17
2019-01-21T08:39:17.961Z,21.27
2019-01-21T08:42:23.524Z,22.73
2019-01-21T08:45:10.917Z,21.40
2019-01-21T08:48:14.378Z,22.00
2019-01-21T08:51:24.664Z,21.30
2019-01-21T08:54:28.808Z,19.20
2019-01-21T08:57:34.298Z,18.70
2019-01-21T09:00:17.664Z,20.03
2019-01-21T09:03:28.442Z,19.03
2019-01-21T09:06:14.690Z,18.97
2019-01-21T09:09:19.539Z,18.87
2019-01-21T09:12:10.662Z,19.90
2019-01-21T09:15:18.898Z,18.70
2019-01-21T09:18:00.683Z,19.27
2019-01-21T09:21:02.502Z,19.03
2019-01-21T09:24:10.158Z,18.57
2019-01-21T09:27:15.104Z,18.40
2019-01-21T09:30:20.072Z,17.20
2019-01-21T09:33:30.703Z,19.13
2019-01-21T09:36:41.004Z,18.00
2019-01-21T09:39:54.032Z,18.87
2019-01-21T09:42:49.642Z,19.23
2019-01-21T09:46:02.388Z,19.50
2019-01-21T09:48:29.942Z,19.67
2019-01-21T09:51:04.140Z,19.00
2019-01-21T09:53:33.994Z,20.27
2019-01-21T09:56:03.734Z,19.73
2019-01-21T09:58:34.906Z,20.63
2019-01-21T10:01:04.360Z,21.50
2019-01-21T10:03:33.746Z,22.30
2019-01-21T10:06:10.299Z,22.00
2019-01-21T10:08:52.664Z,24.33
2019-01-21T10:12:06.476Z,23.73
2019-01-21T10:15:12.148Z,23.80
2019-01-21T10:18:10.414Z,26.17
2019-01-21T10:21:02.836Z,24.77
2019-01-21T10:24:13.594Z,23.92
2019-01-21T10:27:12.828Z,26.57
2019-01-21T10:30:24.915Z,23.60
2019-01-21T10:33:59.458Z,23.62
2019-01-21T10:37:18.237Z,25.12
2019-01-21T10:40:25.486Z,25.37
2019-01-21T10:43:42.045Z,27.27
2019-01-21T10:47:06.999Z,25.08
2019-01-21T10:50:08.287Z,23.45
2019-01-21T10:53:14.797Z,23.80
2019-01-21T10:56:25.305Z,23.27
2019-01-21T10:59:44.905Z,23.70
2019-01-21T11:03:03.261Z,23.40
2019-01-21T11:06:05.973Z,23.65
2019-01-21T11:08:59.297Z,24.20
2019-01-21T11:11:59.122Z,22.55
2019-01-21T11:14:51.256Z,23.80
2019-01-21T11:17:51.776Z,23.57
2019-01-21T11:21:01.313Z,22.07
2019-01-21T11:24:10.105Z,23.42
2019-01-21T11:27:06.268Z,23.62
2019-01-21T11:30:19.032Z,24.30
2019-01-21T11:33:33.289Z,23.95
2019-01-21T11:36:58.652Z,24.57
2019-01-21T11:40:09.495Z,24.80
2019-01-21T11:42:58.448Z,23.57
2019-01-21T11:46:05.752Z,25.15
2019-01-21T11:49:13.072Z,23.05
2019-01-21T11:52:17.697Z,26.48
2019-01-21T11:55:22.133Z,24.23
2019-01-21T11:58:38.708Z,24.85
2019-01-21T12:01:43.521Z,25.43
2019-01-21T12:04:34.454Z,25.75
2019-01-21T12:07:43.368Z,25.00
2019-01-21T12:10:38.987Z,25.02
2019-01-21T12:13:40.813Z,25.20
2019-01-21T12:16:55.736Z,24.30
2019-01-21T12:19:44.362Z,23.75
2019-01-21T12:22:58.280Z,24.50
2019-01-21T12:25:34.736Z,23.83
2019-01-21T12:28:39.918Z,24.82
2019-01-21T12:31:26.740Z,25.17
2019-01-21T12:34:17.222Z,23.95
2019-01-21T12:37:26.292Z,24.92
2019-01-21T12:40:28.814Z,25.37
2019-01-21T12:43:45.591Z,25.15
2019-01-21T12:46:47.930Z,23.70
2019-01-21T12:50:01.688Z,24.03
2019-01-21T12:52:49.304Z,23.73
2019-01-21T12:56:01.755Z,22.87
2019-01-21T12:58:41.614Z,21.73
2019-01-21T13:01:38.535Z,24.00
2019-01-21T13:04:48.760Z,22.80
2019-01-21T13:08:29.362Z,22.67
2019-01-21T13:11:19.415Z,21.93
2019-01-21T13:14:13.830Z,21.90
2019-01-21T13:17:23.391Z,20.87
2019-01-21T13:20:35.883Z,20.40
2019-01-21T13:23:45.229Z,18.20
2019-01-21T13:26:41.566Z,17.00
2019-01-21T13:29:35.398Z,16.73
2019-01-21T13:32:36.934Z,16.97
2019-01-21T13:35:29.303Z,14.77
2019-01-21T13:38:33.746Z,16.43
2019-01-21T13:41:20.914Z,15.77
2019-01-21T13:44:17.230Z,17.00
2019-01-21T13:47:24.557Z,19.03
2019-01-21T13:50:03.531Z,21.40
2019-01-21T13:53:15.996Z,22.17
2019-01-21T13:56:21.231Z,22.53
2019-01-21T13:59:21.571Z,24.23
2019-01-21T14:02:11.416Z,22.47
2019-01-21T14:05:24.276Z,22.00
2019-01-21T14:08:11.668Z,24.93
2019-01-21T14:11:45.228Z,23.60
2019-01-21T14:14:48.832Z,22.00
2019-01-21T14:18:15.292Z,22.47
2019-01-21T14:20:59.644Z,22.33
2019-01-21T14:24:12.471Z,21.83
2019-01-21T14:27:04.170Z,23.87
2019-01-21T14:30:23.221Z,23.67
2019-01-21T14:33:27.372Z,28.20
2019-01-21T14:36:41.460Z,24.50
2019-01-21T14:39:39.534Z,23.67
2019-01-21T14:43:08.556Z,23.37
2019-01-21T14:45:58.276Z,22.33
2019-01-21T14:49:26.373Z,21.90
2019-01-21T14:52:35.747Z,21.37
2019-01-21T14:55:46.474Z,20.03
2019-01-21T14:59:11.876Z,20.00
2019-01-21T15:02:03.080Z,17.97
2019-01-21T15:05:02.380Z,17.57
2019-01-21T15:08:11.351Z,17.77
2019-01-21T15:11:24.941Z,16.83
2019-01-21T15:14:18.208Z,17.57
2019-01-21T15:17:49.230Z,17.67
2019-01-21T15:20:31.760Z,17.60
2019-01-21T15:23:45.214Z,20.03
2019-01-21T15:26:42.801Z,19.70
2019-01-21T15:29:48.793Z,18.83
2019-01-21T15:32:58.732Z,19.17
2019-01-21T15:36:09.874Z,19.43
2019-01-21T15:39:19.791Z,20.03
2019-01-21T15:42:25.501Z,19.63
2019-01-21T15:45:26.743Z,19.57
2019-01-21T15:48:28.339Z,18.80
2019-01-21T15:51:50.545Z,18.80
2019-01-21T15:54:35.211Z,17.57
2019-01-21T15:57:35.265Z,18.00
2019-01-21T16:00:41.144Z,18.27
2019-01-21T16:03:52.951Z,17.70
2019-01-21T16:06:57.419Z,17.87
2019-01-21T16:09:46.318Z,17.67
2019-01-21T16:12:43.148Z,18.67
2019-01-21T16:15:56.044Z,19.37
2019-01-21T16:18:35.263Z,19.83
2019-01-21T16:21:39.933Z,20.00
2019-01-21T16:24:49.028Z,20.73
2019-01-21T16:27:31.223Z,20.60
2019-01-21T16:30:06.601Z,21.27
2019-01-21T16:33:21.109Z,21.80
2019-01-21T16:36:31.224Z,20.03
2019-01-21T16:39:10.960Z,20.07
2019-01-21T16:42:13.717Z,21.53
2019-01-21T16:44:43.662Z,22.07
2019-01-21T16:47:12.713Z,21.70
2019-01-21T16:49:41.806Z,22.33
2019-01-21T16:52:11.150Z,22.50
2019-01-21T16:54:40.493Z,22.93
2019-01-21T16:57:09.876Z,24.53
2019-01-21T16:59:39.081Z,24.53
2019-01-21T17:02:08.277Z,24.67
2019-01-21T17:04:37.370Z,24.37
2019-01-21T17:07:06.707Z,24.23
2019-01-21T17:09:35.953Z,22.67
2019-01-21T17:12:05.400Z,23.47
2019-01-21T17:14:34.536Z,24.37
2019-01-21T17:17:03.926Z,24.67
2019-01-21T17:19:33.252Z,24.43
2019-01-21T17:22:02.319Z,24.17
2019-01-21T17:24:31.678Z,26.77
2019-01-21T17:27:00.730Z,25.70
2019-01-21T17:29:29.808Z,27.03
2019-01-21T17:31:58.870Z,27.50
2019-01-21T17:34:27.949Z,27.60
2019-01-21T17:36:57.000Z,29.73
2019-01-21T17:39:26.044Z,29.03
2019-01-21T17:41:55.090Z,31.97
2019-01-21T17:44:24.119Z,32.13
2019-01-21T17:46:53.463Z,35.67
2019-01-21T17:49:22.808Z,34.77
2019-01-21T17:51:51.947Z,32.37
2019-01-21T17:54:20.964Z,33.07
2019-01-21T17:56:50.068Z,32.77
2019-01-21T17:59:19.096Z,33.97
2019-01-21T18:01:48.394Z,33.63
2019-01-21T18:04:17.541Z,32.93
2019-01-21T18:06:46.672Z,31.13
2019-01-21T18:09:15.715Z,33.40
2019-01-21T18:11:44.812Z,32.07
2019-01-21T18:14:13.978Z,33.10
2019-01-21T18:16:43.044Z,33.50
2019-01-21T18:19:13.596Z,36.40
2019-01-21T18:21:43.103Z,36.23
2019-01-21T18:24:12.176Z,33.80
2019-01-21T18:26:41.501Z,35.07
2019-01-21T18:29:10.800Z,33.90
2019-01-21T18:31:39.853Z,34.37
2019-01-21T18:34:08.861Z,33.93
2019-01-21T18:36:38.254Z,33.53
2019-01-21T18:39:11.699Z,33.03
2019-01-21T18:41:40.766Z,33.90
2019-01-21T18:44:09.860Z,33.90
2019-01-21T18:46:38.921Z,35.10
2019-01-21T18:49:07.980Z,36.00
2019-01-21T18:51:37.075Z,36.27
2019-01-21T18:54:06.127Z,35.90
2019-01-21T18:56:35.931Z,36.37
2019-01-21T18:59:05.165Z,35.37
2019-01-21T19:01:34.557Z,35.73
2019-01-21T19:04:03.697Z,35.13
2019-01-21T19:06:32.751Z,36.33
2019-01-21T19:09:02.465Z,32.67
2019-01-21T19:11:31.513Z,33.40
2019-01-21T19:14:00.534Z,33.43
2019-01-21T19:16:29.945Z,32.10
2019-01-21T19:18:58.995Z,32.93
2019-01-21T19:21:28.090Z,31.33
2019-01-21T19:23:57.572Z,30.43
2019-01-21T19:26:26.590Z,31.37
2019-01-21T19:28:55.612Z,32.40
2019-01-21T19:31:24.672Z,34.20
2019-01-21T19:33:54.200Z,34.37
2019-01-21T19:36:23.284Z,34.10
2019-01-21T19:38:52.644Z,32.60
2019-01-21T19:41:21.690Z,33.57
2019-01-21T19:43:50.802Z,30.00
2019-01-21T19:46:19.860Z,30.57
2019-01-21T19:48:49.302Z,29.53
2019-01-21T19:51:18.639Z,31.20
2019-01-21T19:53:47.687Z,29.57
2019-01-21T19:56:17.030Z,31.40
2019-01-21T19:58:46.143Z,30.17
2019-01-21T20:01:15.201Z,30.33
2019-01-21T20:03:44.296Z,30.20
2019-01-21T20:06:13.316Z,29.13
2019-01-21T20:08:42.692Z,28.10
2019-01-21T20:11:11.742Z,29.73
2019-01-21T20:13:40.901Z,31.33
2019-01-21T20:16:10.247Z,32.87
2019-01-21T20:18:39.308Z,34.73
2019-01-21T20:21:08.322Z,33.20
2019-01-21T20:23:37.603Z,33.53
2019-01-21T20:26:06.618Z,32.23
2019-01-21T20:28:35.942Z,32.37
2019-01-21T20:31:05.802Z,33.43
2019-01-21T20:33:35.201Z,31.70
2019-01-21T20:36:04.361Z,30.50
2019-01-21T20:38:33.413Z,29.17
2019-01-21T20:41:02.524Z,30.03
2019-01-21T20:43:32.135Z,30.67
2019-01-21T20:46:01.233Z,31.13
2019-01-21T20:48:30.290Z,29.67
2019-01-21T20:50:59.529Z,29.53
2019-01-21T20:53:28.842Z,28.97
2019-01-21T20:55:58.171Z,29.23
2019-01-21T20:58:27.558Z,30.83
2019-01-21T21:00:56.613Z,29.57
2019-01-21T21:03:25.854Z,29.87
2019-01-21T21:05:55.244Z,29.90
2019-01-21T21:08:24.639Z,32.00
2019-01-21T21:10:54.482Z,31.60
2019-01-21T21:13:24.069Z,30.03
2019-01-21T21:15:54.430Z,31.60
2019-01-21T21:18:23.770Z,32.50
2019-01-21T21:20:53.057Z,31.57
2019-01-21T21:23:22.721Z,31.80
2019-01-21T21:25:52.263Z,30.23
2019-01-21T21:28:21.490Z,30.27
2019-01-21T21:30:50.875Z,29.73
2019-01-21T21:33:20.051Z,30.67
2019-01-21T21:35:50.017Z,29.83
2019-01-21T21:38:19.192Z,29.73
2019-01-21T21:40:48.533Z,29.27
2019-01-21T21:43:17.978Z,29.30
2019-01-21T21:45:47.106Z,28.73
2019-01-21T21:48:16.587Z,27.83
2019-01-21T21:50:45.743Z,28.83
2019-01-21T21:53:14.971Z,28.03
2019-01-21T21:55:44.167Z,28.80
2019-01-21T21:58:14.587Z,28.40
2019-01-21T22:00:43.772Z,31.07
2019-01-21T22:03:12.954Z,30.10
2019-01-21T22:05:42.560Z,29.60
2019-01-21T22:08:11.749Z,30.90
2019-01-21T22:10:40.987Z,28.50
2019-01-21T22:13:10.618Z,32.53
2019-01-21T22:15:39.781Z,30.03
2019-01-21T22:18:08.944Z,30.83
2019-01-21T22:20:38.422Z,30.97
2019-01-21T22:23:07.729Z,30.60
2019-01-21T22:25:37.225Z,30.87
2019-01-21T22:28:06.505Z,29.40
2019-01-21T22:30:35.592Z,30.77
2019-01-21T22:33:04.703Z,30.30
2019-01-21T22:35:34.389Z,31.13
2019-01-21T22:38:04.269Z,30.57
2019-01-21T22:40:33.679Z,31.70
2019-01-21T22:43:03.106Z,30.10
2019-01-21T22:45:32.742Z,31.20
2019-01-21T22:48:01.853Z,29.37
2019-01-21T22:50:30.879Z,31.03
2019-01-21T22:53:00.269Z,31.20
2019-01-21T22:55:29.295Z,30.83
2019-01-21T22:57:58.365Z,30.97
2019-01-21T23:00:53.125Z,29.50
2019-01-21T23:03:22.653Z,30.67
2019-01-21T23:05:51.659Z,30.73
2019-01-21T23:08:21.064Z,30.53
2019-01-21T23:10:50.231Z,30.80
2019-01-21T23:13:19.327Z,31.67
2019-01-21T23:15:48.445Z,31.60
2019-01-21T23:18:17.851Z,31.03
2019-01-21T23:20:46.915Z,30.23
2019-01-21T23:23:16.055Z,31.70
2019-01-21T23:25:45.060Z,31.80
2019-01-21T23:28:14.105Z,31.60
2019-01-21T23:30:43.148Z,30.70
2019-01-21T23:33:12.477Z,31.37
2019-01-21T23:35:41.571Z,31.50
2019-01-21T23:38:11.073Z,30.77
2019-01-21T23:40:40.086Z,32.20
2019-01-21T23:43:09.429Z,31.63
2019-01-21T23:45:38.425Z,31.00
2019-01-21T23:48:07.854Z,32.13
2019-01-21T23:50:37.165Z,34.83
2019-01-21T23:53:06.241Z,34.80
2019-01-21T23:55:35.576Z,33.77
2019-01-21T23:58:04.819Z,34.13
